Time;durP1;ratioP1;P1;durP2;ratioP2;P2;SDS_P1;SDS_P2;PMS_P1;PMS_P2;Temp;Humidity;BMP_temperature;BMP_pressure;BME280_temperature;BME280_humidity;BME280_pressure;Samples;Min_cycle;Max_cycle;Signal;HPM_P1;HPM_P2
2021/07/18 01:06:26;;;;;;;7.40;4.90;;;19.90;98.30;;;;;;4499688;23;20512;-82
2021/07/18 01:08:33;;;;;;;5.97;4.80;;;19.90;98.30;;;;;;4145852;28;20466;-82
2021/07/18 01:10:41;;;;;;;7.17;5.00;;;19.90;98.30;;;;;;4139551;28;20566;-82
2021/07/18 01:12:48;;;;;;;6.63;4.90;;;19.90;98.30;;;;;;4143715;28;20529;-82
2021/07/18 01:15:12;;;;;;;8.67;6.30;;;19.90;98.30;;;;;;4136354;28;20487;-82
2021/07/18 01:17:16;;;;;;;7.73;4.93;;;19.80;98.30;;;;;;4144071;28;20470;-82
2021/07/18 01:19:21;;;;;;;10.83;4.90;;;19.80;98.30;;;;;;4146330;28;20545;-81
2021/07/18 01:21:26;;;;;;;7.83;4.90;;;19.80;98.30;;;;;;4146975;28;20495;-81
2021/07/18 01:23:31;;;;;;;11.60;5.90;;;19.80;98.30;;;;;;4145062;28;20546;-81
2021/07/18 01:25:34;;;;;;;7.03;5.00;;;19.80;98.30;;;;;;4149562;28;20554;-81
2021/07/18 01:27:38;;;;;;;8.70;5.30;;;19.80;98.30;;;;;;4149503;28;20494;-82
2021/07/18 01:29:41;;;;;;;6.57;5.07;;;19.80;98.30;;;;;;4144206;28;20544;-82
2021/07/18 01:31:44;;;;;;;6.70;4.83;;;19.80;98.30;;;;;;4145138;28;20474;-82
2021/07/18 01:33:47;;;;;;;7.63;5.23;;;19.80;98.30;;;;;;4141343;28;20557;-82
2021/07/18 01:35:50;;;;;;;6.80;5.60;;;19.80;98.30;;;;;;4141006;28;20493;-82
2021/07/18 01:37:53;;;;;;;6.63;5.00;;;19.80;98.30;;;;;;4140125;28;20536;-83
2021/07/18 01:39:58;;;;;;;8.00;5.10;;;19.80;98.30;;;;;;4141742;28;20527;-82
2021/07/18 01:42:01;;;;;;;6.63;4.97;;;19.70;98.30;;;;;;4142130;28;20494;-82
2021/07/18 01:44:08;;;;;;;10.10;4.67;;;19.70;98.30;;;;;;4140548;28;20841;-83
2021/07/18 01:46:11;;;;;;;11.23;5.10;;;19.70;98.30;;;;;;4144080;28;21048;-82
2021/07/18 01:48:14;;;;;;;6.40;4.73;;;19.70;98.30;;;;;;4135782;28;21274;-82
2021/07/18 01:50:17;;;;;;;9.90;5.40;;;19.70;98.30;;;;;;4136984;28;20475;-83
2021/07/18 01:52:20;;;;;;;5.70;5.03;;;19.80;98.30;;;;;;4143243;28;20486;-82
2021/07/18 01:54:23;;;;;;;6.07;4.80;;;19.70;98.30;;;;;;4146004;28;22375;-83
2021/07/18 01:56:28;;;;;;;5.43;4.63;;;19.80;98.30;;;;;;4147875;28;20501;-81
2021/07/18 01:58:31;;;;;;;6.30;4.10;;;19.80;98.30;;;;;;4146228;28;20581;-82
2021/07/18 02:00:35;;;;;;;10.03;4.93;;;19.70;98.30;;;;;;4146670;28;20485;-82
2021/07/18 02:02:40;;;;;;;7.40;4.83;;;19.70;98.30;;;;;;4147164;28;20474;-83
2021/07/18 02:04:43;;;;;;;7.83;5.60;;;19.70;98.30;;;;;;4146769;28;20977;-83
2021/07/18 02:06:46;;;;;;;8.17;4.90;;;19.70;98.30;;;;;;4148518;28;20960;-83
2021/07/18 02:08:50;;;;;;;6.40;5.10;;;19.70;98.30;;;;;;4145449;28;20549;-82
2021/07/18 02:10:53;;;;;;;10.63;5.30;;;19.70;98.30;;;;;;4141310;28;20479;-83
2021/07/18 02:12:57;;;;;;;5.57;4.67;;;19.70;98.30;;;;;;4139160;28;20540;-82
2021/07/18 02:15:00;;;;;;;9.60;5.50;;;19.70;98.30;;;;;;4140200;28;20555;-82
2021/07/18 02:17:04;;;;;;;6.63;4.70;;;19.60;98.30;;;;;;4145559;28;20523;-82
2021/07/18 02:19:08;;;;;;;7.33;4.70;;;19.60;98.30;;;;;;4138370;28;20974;-82
2021/07/18 02:21:12;;;;;;;7.60;4.93;;;19.60;98.30;;;;;;4139365;28;20471;-82
2021/07/18 02:23:15;;;;;;;9.63;4.93;;;19.60;98.30;;;;;;4141193;28;20502;-82
2021/07/18 02:25:20;;;;;;;9.57;4.87;;;19.60;98.30;;;;;;4139023;28;20536;-83
2021/07/18 02:27:23;;;;;;;8.10;5.20;;;19.60;98.30;;;;;;4139841;28;20558;-82
2021/07/18 02:29:28;;;;;;;16.30;6.00;;;19.60;98.30;;;;;;4140394;28;20562;-82
2021/07/18 02:31:31;;;;;;;7.33;5.00;;;19.60;98.30;;;;;;4139582;28;20490;-82
2021/07/18 02:33:34;;;;;;;5.37;4.83;;;19.60;98.30;;;;;;4139729;28;20534;-82
2021/07/18 02:35:37;;;;;;;6.57;4.60;;;19.60;98.30;;;;;;4139914;28;20570;-82
2021/07/18 02:37:41;;;;;;;8.17;4.57;;;19.50;98.30;;;;;;4142096;28;20466;-82
2021/07/18 02:39:44;;;;;;;7.60;4.20;;;19.50;98.30;;;;;;4138976;28;20497;-82
2021/07/18 02:41:47;;;;;;;10.00;4.90;;;19.40;98.30;;;;;;4139886;28;20974;-82
2021/07/18 02:43:50;;;;;;;7.20;4.30;;;19.40;98.30;;;;;;4139055;28;20474;-82
2021/07/18 02:45:54;;;;;;;7.70;4.93;;;19.40;98.30;;;;;;4142003;28;20552;-82
2021/07/18 02:47:57;;;;;;;7.90;4.80;;;19.40;98.30;;;;;;4140011;28;20493;-82
2021/07/18 02:50:01;;;;;;;7.00;4.53;;;19.30;98.30;;;;;;4139353;28;20562;-82
2021/07/18 02:52:05;;;;;;;8.40;4.30;;;19.30;98.30;;;;;;4139884;28;20476;-83
2021/07/18 02:54:08;;;;;;;8.10;5.60;;;19.20;98.30;;;;;;4138897;28;20561;-82
2021/07/18 02:56:11;;;;;;;10.53;5.13;;;19.30;98.30;;;;;;4141775;28;20566;-82
2021/07/18 02:58:14;;;;;;;7.73;5.43;;;19.20;98.30;;;;;;4139183;28;20470;-82
2021/07/18 03:00:18;;;;;;;6.30;5.00;;;19.20;98.30;;;;;;4138739;28;20505;-82
2021/07/18 03:02:23;;;;;;;6.50;5.87;;;19.30;98.30;;;;;;4139282;28;20466;-82
2021/07/18 03:04:26;;;;;;;6.37;5.30;;;19.30;98.30;;;;;;4139834;28;20490;-82
2021/07/18 03:06:29;;;;;;;7.33;5.80;;;19.30;98.30;;;;;;4138225;28;20508;-82
2021/07/18 03:08:32;;;;;;;6.97;5.50;;;19.30;98.30;;;;;;4133477;28;20482;-82
2021/07/18 03:10:35;;;;;;;7.60;5.50;;;19.30;98.30;;;;;;4138807;28;20467;-82
2021/07/18 03:12:38;;;;;;;5.40;4.80;;;19.20;98.30;;;;;;4136967;28;20475;-82
2021/07/18 03:14:41;;;;;;;6.47;5.47;;;19.20;98.30;;;;;;4138731;28;20998;-82
2021/07/18 03:16:45;;;;;;;7.77;5.23;;;19.10;98.30;;;;;;4147008;28;20852;-82
2021/07/18 03:18:49;;;;;;;10.20;5.87;;;19.10;98.30;;;;;;4138361;28;20473;-81
2021/07/18 03:20:52;;;;;;;6.97;5.40;;;19.10;98.30;;;;;;4137119;28;20495;-82
2021/07/18 03:22:55;;;;;;;7.80;5.77;;;19.20;98.30;;;;;;4137999;28;20468;-82
2021/07/18 03:24:58;;;;;;;12.00;6.67;;;19.20;98.30;;;;;;4140114;28;20458;-82
2021/07/18 03:27:01;;;;;;;9.83;6.10;;;19.30;98.30;;;;;;4142290;28;20470;-82
2021/07/18 03:29:04;;;;;;;14.80;6.80;;;19.30;98.30;;;;;;4140471;28;20469;-82
2021/07/18 03:31:07;;;;;;;10.00;6.83;;;19.30;98.30;;;;;;4136691;28;20474;-82
2021/07/18 03:33:10;;;;;;;12.83;8.20;;;19.30;98.30;;;;;;4142596;28;20466;-82
2021/07/18 03:35:15;;;;;;;8.07;6.13;;;19.20;98.30;;;;;;4140862;28;20914;-82
2021/07/18 03:37:18;;;;;;;10.43;6.43;;;19.20;98.30;;;;;;4138342;28;20476;-83
2021/07/18 03:39:21;;;;;;;9.60;6.47;;;19.20;98.30;;;;;;4138740;28;20489;-82
2021/07/18 03:41:24;;;;;;;10.03;6.30;;;19.30;98.30;;;;;;4141463;28;20478;-82
2021/07/18 03:43:27;;;;;;;9.77;5.90;;;19.30;98.30;;;;;;4145509;28;20462;-82
2021/07/18 03:45:31;;;;;;;10.83;6.37;;;19.30;98.30;;;;;;4143724;28;20593;-82
2021/07/18 03:47:34;;;;;;;14.07;6.70;;;19.30;98.30;;;;;;4137152;28;20553;-81
2021/07/18 03:49:37;;;;;;;7.80;6.77;;;19.30;98.30;;;;;;4137374;28;20462;-82
2021/07/18 03:51:42;;;;;;;8.43;6.30;;;19.30;98.30;;;;;;4144594;28;20472;-82
2021/07/18 03:53:45;;;;;;;10.93;6.57;;;19.30;98.30;;;;;;4140142;28;20466;-81
2021/07/18 03:55:48;;;;;;;8.57;5.90;;;19.40;98.30;;;;;;4139954;28;20554;-82
2021/07/18 03:57:51;;;;;;;10.73;6.20;;;19.30;98.30;;;;;;4141187;28;20490;-81
2021/07/18 03:59:55;;;;;;;8.47;6.20;;;19.40;98.30;;;;;;4146557;28;20581;-82
2021/07/18 04:01:58;;;;;;;6.50;5.80;;;19.50;98.30;;;;;;4146412;28;20549;-81
2021/07/18 04:04:02;;;;;;;10.10;8.10;;;19.50;98.30;;;;;;4142732;28;20884;-81
2021/07/18 04:06:05;;;;;;;14.53;11.30;;;19.60;98.30;;;;;;4145863;28;20490;-82
2021/07/18 04:08:09;;;;;;;13.50;6.83;;;19.60;98.30;;;;;;4140632;28;20462;-83
2021/07/18 04:10:12;;;;;;;9.93;8.93;;;19.50;98.30;;;;;;4137758;28;20486;-82
2021/07/18 04:12:15;;;;;;;11.73;6.50;;;19.60;98.30;;;;;;4147646;28;20472;-82
2021/07/18 04:14:22;;;;;;;7.07;5.90;;;19.60;98.30;;;;;;4141398;28;20507;-82
2021/07/18 04:16:25;;;;;;;9.83;6.70;;;19.60;98.30;;;;;;4142486;28;20581;-82
2021/07/18 04:18:28;;;;;;;10.07;6.77;;;19.60;98.30;;;;;;4135490;28;20475;-82
2021/07/18 04:20:31;;;;;;;12.70;6.13;;;19.60;98.30;;;;;;4141968;28;20495;-81
2021/07/18 04:22:34;;;;;;;7.00;6.30;;;19.70;98.30;;;;;;4141724;28;21076;-82
2021/07/18 04:24:38;;;;;;;8.27;5.80;;;19.70;98.30;;;;;;4141306;28;20958;-81
2021/07/18 04:26:41;;;;;;;9.23;6.50;;;19.70;98.30;;;;;;4140034;28;20492;-81
2021/07/18 04:28:45;;;;;;;10.53;7.00;;;19.70;98.30;;;;;;4140329;28;20465;-81
2021/07/18 04:30:48;;;;;;;10.30;6.23;;;19.70;98.30;;;;;;4141889;28;20561;-82
2021/07/18 04:32:54;;;;;;;8.67;5.80;;;19.70;98.30;;;;;;4141594;28;20463;-82
2021/07/18 04:34:57;;;;;;;7.63;5.50;;;19.70;98.30;;;;;;4140109;28;20463;-82
2021/07/18 04:37:01;;;;;;;7.20;5.63;;;19.60;98.30;;;;;;4143513;28;20905;-81
2021/07/18 04:39:04;;;;;;;7.47;5.30;;;19.60;98.30;;;;;;4138862;28;20573;-82
2021/07/18 04:41:08;;;;;;;10.13;6.00;;;19.60;98.30;;;;;;4141373;28;20486;-81
2021/07/18 04:43:14;;;;;;;10.93;5.10;;;19.70;98.30;;;;;;4140524;28;20477;-82
2021/07/18 04:45:17;;;;;;;7.00;6.03;;;19.70;98.30;;;;;;4139868;28;20522;-82
2021/07/18 04:47:20;;;;;;;7.63;4.83;;;19.70;98.30;;;;;;4141489;28;20532;-82
2021/07/18 04:49:24;;;;;;;6.70;5.00;;;19.80;98.30;;;;;;4137760;28;20839;-82
2021/07/18 04:51:27;;;;;;;11.87;5.43;;;19.80;98.30;;;;;;4141541;28;20461;-82
2021/07/18 04:53:30;;;;;;;6.50;5.20;;;19.80;98.30;;;;;;4140600;28;20465;-82
2021/07/18 04:55:33;;;;;;;5.37;4.80;;;19.80;98.30;;;;;;4139565;28;20573;-82
2021/07/18 04:57:37;;;;;;;6.70;4.77;;;19.90;98.30;;;;;;4137555;28;20467;-82
2021/07/18 04:59:40;;;;;;;5.80;4.57;;;19.80;98.30;;;;;;4140947;28;20953;-82
2021/07/18 05:01:43;;;;;;;6.90;5.10;;;19.80;98.30;;;;;;4143634;28;20462;-82
2021/07/18 05:03:47;;;;;;;7.90;4.97;;;19.90;98.30;;;;;;4146740;28;20474;-82
2021/07/18 05:05:50;;;;;;;7.63;5.00;;;19.90;98.30;;;;;;4146612;28;20497;-82
2021/07/18 05:07:54;;;;;;;6.20;4.63;;;20.00;98.30;;;;;;4143167;28;20499;-81
2021/07/18 05:09:57;;;;;;;9.10;4.60;;;19.90;98.30;;;;;;4143966;28;20460;-82
2021/07/18 05:12:00;;;;;;;7.20;4.93;;;19.90;98.30;;;;;;4148360;28;20497;-82
2021/07/18 05:14:10;;;;;;;6.70;4.70;;;19.90;98.30;;;;;;4146748;28;20487;-82
2021/07/18 05:16:14;;;;;;;6.23;4.43;;;19.90;98.30;;;;;;4143886;28;20992;-82
2021/07/18 05:18:17;;;;;;;8.53;5.60;;;20.00;98.30;;;;;;4146925;28;20471;-82
2021/07/18 05:20:21;;;;;;;6.50;4.80;;;20.00;98.30;;;;;;4135037;28;20495;-82
2021/07/18 05:22:25;;;;;;;8.47;5.77;;;20.00;98.30;;;;;;4148780;28;21172;-81
2021/07/18 05:24:27;;;;;;;6.40;4.73;;;20.10;98.30;;;;;;4142917;28;20462;-82
2021/07/18 05:26:30;;;;;;;6.83;4.90;;;20.20;98.30;;;;;;4140101;28;20547;-81
2021/07/18 05:28:33;;;;;;;6.57;4.57;;;20.20;98.30;;;;;;4145297;28;20896;-82
2021/07/18 05:30:38;;;;;;;7.50;4.60;;;20.20;98.30;;;;;;4134480;28;20485;-81
2021/07/18 05:32:41;;;;;;;10.33;4.97;;;20.30;98.30;;;;;;4137113;28;20838;-81
2021/07/18 05:34:44;;;;;;;6.73;4.80;;;20.30;98.30;;;;;;4139013;28;20853;-83
2021/07/18 05:36:47;;;;;;;5.33;4.83;;;20.30;98.30;;;;;;4138741;28;20516;-82
2021/07/18 05:38:50;;;;;;;6.83;5.30;;;20.30;98.30;;;;;;4145618;28;20476;-82
2021/07/18 05:40:53;;;;;;;7.47;4.50;;;20.40;98.30;;;;;;4142343;28;20492;-82
2021/07/18 05:42:56;;;;;;;8.10;4.57;;;20.50;98.30;;;;;;4142774;28;20462;-82
2021/07/18 05:44:59;;;;;;;8.93;5.27;;;20.50;98.30;;;;;;4142572;28;20550;-82
2021/07/18 05:47:04;;;;;;;5.60;4.20;;;20.60;98.30;;;;;;4142803;28;20562;-82
2021/07/18 05:49:07;;;;;;;10.73;5.37;;;20.60;98.30;;;;;;4142837;28;20494;-83
2021/07/18 05:51:10;;;;;;;10.30;5.13;;;20.70;98.30;;;;;;4149461;28;21062;-82
2021/07/18 05:53:13;;;;;;;7.87;5.10;;;20.80;98.30;;;;;;4145905;28;20490;-82
2021/07/18 05:55:17;;;;;;;6.27;5.00;;;20.80;98.30;;;;;;4141455;28;20534;-82
2021/07/18 05:57:21;;;;;;;9.60;7.50;;;20.90;98.30;;;;;;4136303;28;20477;-82
2021/07/18 05:59:29;;;;;;;10.27;6.80;;;20.80;98.30;;;;;;4139132;28;20473;-82
2021/07/18 06:01:32;;;;;;;8.13;6.30;;;20.80;98.30;;;;;;4139344;28;21121;-83
2021/07/18 06:03:37;;;;;;;8.50;5.73;;;20.80;98.30;;;;;;4142595;28;20477;-82
2021/07/18 06:05:40;;;;;;;7.73;5.10;;;20.90;98.30;;;;;;4139616;28;21008;-82
2021/07/18 06:07:43;;;;;;;5.53;4.50;;;20.90;98.30;;;;;;4135143;28;20571;-81
2021/07/18 06:09:46;;;;;;;9.93;4.37;;;20.90;98.30;;;;;;4143792;28;20474;-81
2021/07/18 06:11:49;;;;;;;6.40;5.13;;;21.00;98.30;;;;;;4142656;28;20533;-83
2021/07/18 06:13:52;;;;;;;8.33;6.57;;;20.90;98.30;;;;;;4144439;28;20477;-82
2021/07/18 06:15:55;;;;;;;7.80;4.97;;;20.90;98.30;;;;;;4139105;28;20505;-82
2021/07/18 06:17:58;;;;;;;8.00;5.20;;;20.90;98.30;;;;;;4143129;28;20830;-82
2021/07/18 06:20:09;;;;;;;6.50;5.40;;;21.00;98.30;;;;;;4148155;28;20488;-81
2021/07/18 06:22:12;;;;;;;7.13;5.70;;;21.00;98.30;;;;;;4139333;28;20478;-83
2021/07/18 06:24:15;;;;;;;7.67;4.80;;;21.10;98.30;;;;;;4140469;28;20818;-82
2021/07/18 06:26:20;;;;;;;5.80;5.00;;;21.20;98.30;;;;;;4137812;28;20533;-82
2021/07/18 06:28:23;;;;;;;5.70;4.30;;;21.20;98.30;;;;;;4137413;28;20459;-82
2021/07/18 06:30:26;;;;;;;5.67;3.97;;;21.20;98.30;;;;;;4143699;28;20471;-83
2021/07/18 06:32:29;;;;;;;10.77;4.57;;;21.20;98.30;;;;;;4139034;28;20557;-82
2021/07/18 06:34:33;;;;;;;6.90;4.70;;;21.20;98.30;;;;;;4142159;28;20466;-81
2021/07/18 06:36:37;;;;;;;4.90;4.03;;;21.20;98.30;;;;;;4132737;28;21030;-81
2021/07/18 06:38:40;;;;;;;5.90;4.20;;;21.20;98.30;;;;;;4140097;28;20470;-82
2021/07/18 06:40:44;;;;;;;5.30;4.33;;;21.30;98.30;;;;;;4139651;28;20479;-81
2021/07/18 06:42:47;;;;;;;4.97;4.27;;;21.40;98.30;;;;;;4149015;28;20830;-81
2021/07/18 06:44:50;;;;;;;8.63;5.30;;;21.60;98.30;;;;;;4135776;28;20553;-83
2021/07/18 06:46:53;;;;;;;6.50;4.57;;;21.60;98.30;;;;;;4137590;28;20467;-81
2021/07/18 06:49:00;;;;;;;7.53;4.97;;;21.70;98.30;;;;;;4139535;28;20554;-83
2021/07/18 06:51:04;;;;;;;4.57;4.17;;;21.80;98.30;;;;;;4140139;28;20919;-81
2021/07/18 06:53:08;;;;;;;4.97;4.43;;;21.80;98.30;;;;;;4139887;28;20478;-81
2021/07/18 06:55:12;;;;;;;11.70;6.20;;;21.90;98.30;;;;;;4139188;28;21058;-81
2021/07/18 06:57:15;;;;;;;6.27;5.57;;;22.00;98.30;;;;;;4139352;28;20471;-82
2021/07/18 06:59:18;;;;;;;10.20;8.03;;;21.90;98.30;;;;;;4144395;28;20501;-81
2021/07/18 07:01:21;;;;;;;9.00;6.60;;;21.90;98.30;;;;;;4145923;28;20485;-83
2021/07/18 07:03:24;;;;;;;6.17;4.30;;;21.90;98.30;;;;;;4135426;28;20562;-82
2021/07/18 07:05:29;;;;;;;7.10;4.30;;;21.90;98.30;;;;;;4143183;28;21035;-82
2021/07/18 07:07:32;;;;;;;5.87;4.30;;;22.00;98.30;;;;;;4148248;28;20541;-82
2021/07/18 07:09:40;;;;;;;4.43;4.03;;;22.00;98.30;;;;;;4147998;28;20474;-81
2021/07/18 07:11:43;;;;;;;7.50;4.23;;;22.10;98.30;;;;;;4148018;28;20489;-82
2021/07/18 07:13:46;;;;;;;10.90;5.20;;;22.20;98.30;;;;;;4146991;28;20462;-82
2021/07/18 07:15:50;;;;;;;5.00;4.20;;;22.20;98.30;;;;;;4148477;28;20841;-82
2021/07/18 07:17:53;;;;;;;10.20;4.47;;;22.30;98.30;;;;;;4145082;28;20459;-82
2021/07/18 07:19:56;;;;;;;9.20;4.30;;;22.40;98.30;;;;;;4146197;28;20565;-81
2021/07/18 07:22:01;;;;;;;5.60;3.90;;;22.60;98.30;;;;;;4144377;28;20853;-81
2021/07/18 07:24:06;;;;;;;6.30;4.33;;;22.80;98.30;;;;;;4146704;28;20466;-82
2021/07/18 07:26:11;;;;;;;6.33;4.30;;;22.80;98.30;;;;;;4142393;28;20574;-82
2021/07/18 07:28:14;;;;;;;6.60;4.40;;;23.00;98.30;;;;;;4149412;28;20498;-81
2021/07/18 07:30:18;;;;;;;5.93;3.40;;;23.10;98.30;;;;;;4148327;28;20561;-82
2021/07/18 07:32:21;;;;;;;4.83;4.20;;;23.10;98.30;;;;;;4146854;28;20462;-81
2021/07/18 07:34:24;;;;;;;7.37;3.80;;;23.00;98.30;;;;;;4142005;28;20480;-82
2021/07/18 07:36:27;;;;;;;9.03;4.30;;;23.10;98.30;;;;;;4145673;28;20482;-81
2021/07/18 07:38:30;;;;;;;5.93;3.90;;;23.10;98.30;;;;;;4145424;28;20502;-81
2021/07/18 07:40:34;;;;;;;4.63;4.13;;;23.10;98.30;;;;;;4139210;28;20470;-82
2021/07/18 07:42:38;;;;;;;5.30;3.67;;;23.20;98.30;;;;;;4143253;28;20491;-81
2021/07/18 07:44:41;;;;;;;5.83;4.10;;;23.20;98.30;;;;;;4139581;28;20471;-82
2021/07/18 07:46:44;;;;;;;9.00;3.70;;;23.30;98.30;;;;;;4141110;28;20527;-82
2021/07/18 07:48:48;;;;;;;6.60;4.40;;;23.30;98.30;;;;;;4144245;28;20470;-82
2021/07/18 07:50:51;;;;;;;6.17;4.87;;;23.40;98.30;;;;;;4144975;28;20506;-82
2021/07/18 07:52:54;;;;;;;9.40;4.43;;;23.50;98.30;;;;;;4142781;28;20459;-82
2021/07/18 07:54:57;;;;;;;6.50;4.87;;;23.50;98.30;;;;;;4144394;28;20459;-82
2021/07/18 07:57:00;;;;;;;6.70;4.57;;;23.50;98.30;;;;;;4146126;28;20549;-82
2021/07/18 07:59:04;;;;;;;5.43;3.97;;;23.70;98.30;;;;;;4141785;28;20462;-81
2021/07/18 08:01:08;;;;;;;5.40;3.83;;;23.90;98.30;;;;;;4145843;28;20462;-82
2021/07/18 08:03:11;;;;;;;4.87;3.90;;;24.00;98.30;;;;;;4141117;28;20517;-82
2021/07/18 08:05:16;;;;;;;5.63;4.00;;;24.00;98.30;;;;;;4144139;28;20518;-82
2021/07/18 08:07:19;;;;;;;7.33;4.33;;;23.90;98.30;;;;;;4140606;28;20470;-81
2021/07/18 08:09:22;;;;;;;7.40;4.67;;;24.00;98.30;;;;;;4142402;28;20832;-82
2021/07/18 08:11:25;;;;;;;7.60;4.33;;;24.10;98.30;;;;;;4144019;28;20494;-82
2021/07/18 08:13:28;;;;;;;5.60;3.67;;;24.20;98.30;;;;;;4142110;28;20934;-82
2021/07/18 08:15:34;;;;;;;5.93;4.13;;;24.20;98.30;;;;;;4145612;28;20549;-82
2021/07/18 08:17:38;;;;;;;7.87;3.77;;;24.20;98.30;;;;;;4146156;28;20557;-82
2021/07/18 08:19:41;;;;;;;5.93;4.03;;;24.30;98.30;;;;;;4141527;28;20489;-81
2021/07/18 08:21:44;;;;;;;7.40;4.20;;;24.40;98.30;;;;;;4144549;28;20542;-82
2021/07/18 08:23:49;;;;;;;5.70;3.90;;;24.30;98.30;;;;;;4143015;28;20496;-81
2021/07/18 08:25:52;;;;;;;8.03;4.73;;;24.20;98.30;;;;;;4147418;28;20508;-82
2021/07/18 08:27:56;;;;;;;6.90;4.10;;;24.20;98.30;;;;;;4146350;28;20504;-82
2021/07/18 08:29:59;;;;;;;6.77;3.70;;;24.10;98.30;;;;;;4145731;28;20490;-81
2021/07/18 08:32:07;;;;;;;4.97;4.03;;;24.00;98.30;;;;;;4141932;28;20473;-82
2021/07/18 08:34:11;;;;;;;8.10;4.07;;;24.00;98.30;;;;;;4143653;28;20476;-82
2021/07/18 08:36:16;;;;;;;4.40;3.70;;;24.10;98.30;;;;;;4137739;28;20542;-82
2021/07/18 08:38:24;;;;;;;6.17;4.70;;;24.30;98.30;;;;;;4142540;28;20565;-82
2021/07/18 08:40:34;;;;;;;4.40;3.90;;;24.30;98.30;;;;;;4145857;28;20473;-82
2021/07/18 08:42:38;;;;;;;5.20;3.73;;;24.50;98.30;;;;;;4145366;28;20505;-82
2021/07/18 08:44:41;;;;;;;6.23;4.63;;;24.60;98.30;;;;;;4144761;28;20496;-82
2021/07/18 08:46:44;;;;;;;5.00;4.00;;;24.70;98.30;;;;;;4145394;28;20501;-82
2021/07/18 08:48:49;;;;;;;5.70;4.17;;;24.70;98.30;;;;;;4147867;28;20546;-82
2021/07/18 08:50:52;;;;;;;6.13;4.33;;;24.80;98.30;;;;;;4146472;28;20475;-81
2021/07/18 08:52:56;;;;;;;10.20;4.60;;;24.80;98.30;;;;;;4149641;28;20901;-82
2021/07/18 08:55:00;;;;;;;8.23;4.80;;;24.70;98.30;;;;;;4147710;28;20458;-82
2021/07/18 08:57:04;;;;;;;4.37;3.60;;;24.60;98.30;;;;;;4144146;28;20464;-82
2021/07/18 08:59:07;;;;;;;4.80;3.90;;;24.70;98.30;;;;;;4145604;28;20966;-82
2021/07/18 09:01:13;;;;;;;7.63;4.50;;;25.00;98.30;;;;;;4146897;28;20469;-83
2021/07/18 09:03:17;;;;;;;4.53;3.80;;;25.10;98.30;;;;;;4151690;28;20572;-83
2021/07/18 09:05:22;;;;;;;5.07;4.00;;;25.20;98.30;;;;;;4145879;28;20537;-82
2021/07/18 09:07:25;;;;;;;6.67;4.30;;;25.10;98.30;;;;;;4149066;28;20509;-82
2021/07/18 09:09:32;;;;;;;11.07;5.17;;;25.00;98.30;;;;;;4146145;28;20501;-82
2021/07/18 09:11:36;;;;;;;7.93;4.67;;;25.00;98.30;;;;;;4146392;28;20546;-82
2021/07/18 09:13:39;;;;;;;7.00;4.80;;;25.30;98.30;;;;;;4149713;28;20866;-82
2021/07/18 09:15:44;;;;;;;6.37;4.30;;;25.40;98.30;;;;;;4148004;28;20576;-82
2021/07/18 09:17:47;;;;;;;12.60;4.80;;;25.30;98.30;;;;;;4147940;28;20462;-82
2021/07/18 09:19:51;;;;;;;6.73;4.00;;;25.10;98.30;;;;;;4151605;28;20530;-82
2021/07/18 09:22:11;;;;;;;9.00;4.40;;;25.00;98.30;;;;;;4150324;28;20469;-82
2021/07/18 09:24:21;;;;;;;8.40;5.67;;;24.80;98.30;;;;;;4148122;28;20485;-82
2021/07/18 09:26:30;;;;;;;5.97;5.20;;;24.80;98.30;;;;;;4149523;28;20482;-82
2021/07/18 09:28:44;;;;;;;6.80;4.60;;;24.90;98.30;;;;;;4151251;28;20563;-82
2021/07/18 09:31:27;;;;;;;10.50;5.20;;;25.20;98.30;;;;;;4153619;28;20468;-82
2021/07/18 09:33:32;;;;;;;5.40;4.80;;;25.30;98.30;;;;;;4149149;28;20471;-82
2021/07/18 09:35:50;;;;;;;7.33;4.80;;;25.30;98.30;;;;;;4148969;28;20944;-82
2021/07/18 09:37:55;;;;;;;8.53;4.50;;;25.20;98.30;;;;;;4145719;28;20462;-82
2021/07/18 09:40:01;;;;;;;6.33;4.27;;;25.40;98.30;;;;;;4146557;28;20467;-82
2021/07/18 09:42:04;;;;;;;11.40;4.67;;;25.70;98.30;;;;;;4148450;28;20458;-82
2021/07/18 09:44:09;;;;;;;4.77;4.20;;;25.90;98.10;;;;;;4146437;28;21535;-82
2021/07/18 09:46:18;;;;;;;9.97;4.50;;;26.00;97.20;;;;;;4148335;28;20485;-82
2021/07/18 09:48:47;;;;;;;7.63;4.80;;;25.90;97.80;;;;;;4148836;28;20469;-82
2021/07/18 09:50:50;;;;;;;6.23;4.57;;;25.80;97.60;;;;;;4149542;28;20481;-82
2021/07/18 09:53:11;;;;;;;5.83;4.57;;;25.60;97.80;;;;;;4147229;28;20458;-82
2021/07/18 09:55:21;;;;;;;5.83;4.50;;;25.60;98.30;;;;;;4146408;28;20483;-82
2021/07/18 09:57:32;;;;;;;4.67;4.23;;;25.50;98.30;;;;;;4148450;28;20496;-82
2021/07/18 09:59:35;;;;;;;10.57;4.40;;;25.60;98.30;;;;;;4148016;28;20490;-82
2021/07/18 10:01:38;;;;;;;6.67;4.20;;;25.90;98.30;;;;;;4148807;28;20507;-83
2021/07/18 10:03:46;;;;;;;5.30;3.53;;;26.30;97.70;;;;;;4142410;28;20585;-82
2021/07/18 10:06:07;;;;;;;5.07;4.17;;;26.20;96.50;;;;;;4148815;28;20565;-82
2021/07/18 10:08:12;;;;;;;5.03;3.83;;;26.00;96.30;;;;;;4147509;28;20485;-82
2021/07/18 10:10:15;;;;;;;4.37;3.50;;;25.60;97.40;;;;;;4147132;28;20500;-82
2021/07/18 10:12:19;;;;;;;6.00;3.67;;;25.50;98.30;;;;;;4148863;28;20469;-83
2021/07/18 10:14:22;;;;;;;4.63;3.93;;;25.60;97.70;;;;;;4146370;28;20486;-82
2021/07/18 10:16:29;;;;;;;6.03;3.67;;;25.80;96.90;;;;;;4150949;28;20521;-82
2021/07/18 10:18:32;;;;;;;6.50;3.50;;;26.10;97.10;;;;;;4149025;28;20743;-82
2021/07/18 10:20:36;;;;;;;5.77;3.70;;;26.40;96.10;;;;;;4150830;28;20494;-82
2021/07/18 10:22:40;;;;;;;4.83;3.70;;;26.60;95.20;;;;;;4148268;28;20466;-82
2021/07/18 10:24:45;;;;;;;7.40;4.07;;;26.60;95.50;;;;;;4148489;28;20548;-82
2021/07/18 10:26:49;;;;;;;6.00;3.80;;;26.30;95.50;;;;;;4149775;28;20498;-82
2021/07/18 10:28:53;;;;;;;6.17;3.73;;;26.00;97.30;;;;;;4150387;28;20490;-83
2021/07/18 10:30:59;;;;;;;5.30;3.20;;;26.30;97.10;;;;;;4148700;28;20561;-82
2021/07/18 10:33:05;;;;;;;6.20;3.50;;;26.70;95.10;;;;;;4149411;28;20489;-82
2021/07/18 10:35:10;;;;;;;10.23;4.10;;;26.80;94.00;;;;;;4146637;28;20537;-83
2021/07/18 10:37:13;;;;;;;3.70;3.30;;;26.90;94.50;;;;;;4149573;28;20462;-82
2021/07/18 10:39:34;;;;;;;5.50;3.60;;;26.80;94.60;;;;;;4149013;28;20557;-82
2021/07/18 10:41:42;;;;;;;5.70;3.23;;;26.60;94.40;;;;;;4147952;28;20908;-82
2021/07/18 10:43:47;;;;;;;5.80;3.40;;;26.30;94.90;;;;;;4146328;28;20501;-82
2021/07/18 10:45:50;;;;;;;6.27;3.93;;;26.20;97.20;;;;;;4146396;28;20483;-82
2021/07/18 10:48:03;;;;;;;3.97;3.57;;;26.20;96.70;;;;;;4145733;28;20486;-83
2021/07/18 10:50:07;;;;;;;4.63;2.97;;;26.40;96.10;;;;;;4142389;28;20463;-82
2021/07/18 10:52:14;;;;;;;5.30;3.83;;;26.80;93.80;;;;;;4142336;28;20481;-82
2021/07/18 10:54:19;;;;;;;5.97;3.80;;;27.00;92.70;;;;;;4145446;28;20569;-82
2021/07/18 10:56:40;;;;;;;4.63;3.33;;;27.00;93.40;;;;;;4152741;28;20986;-82
2021/07/18 10:58:51;;;;;;;8.03;3.60;;;26.90;93.10;;;;;;4149400;28;20473;-82
2021/07/18 11:00:54;;;;;;;5.20;3.60;;;26.30;95.20;;;;;;4147047;28;20458;-82
2021/07/18 11:03:07;;;;;;;4.30;2.90;;;26.40;95.80;;;;;;4148328;28;20463;-82
2021/07/18 11:05:16;;;;;;;7.70;3.30;;;26.80;95.70;;;;;;4147304;28;20485;-82
2021/07/18 11:07:40;;;;;;;4.10;3.00;;;27.10;93.30;;;;;;4149214;28;20569;-81
2021/07/18 11:09:45;;;;;;;4.40;3.10;;;27.50;92.00;;;;;;4139408;28;20462;-82
2021/07/18 11:11:50;;;;;;;4.93;3.10;;;27.50;90.50;;;;;;4148243;28;20466;-82
2021/07/18 11:14:25;;;;;;;4.97;2.80;;;27.30;90.60;;;;;;4150396;28;20477;-82
2021/07/18 11:16:49;;;;;;;5.43;2.90;;;27.50;91.20;;;;;;4148105;28;20478;-83
2021/07/18 11:18:52;;;;;;;4.10;2.80;;;27.70;90.40;;;;;;4145401;28;21009;-83
2021/07/18 11:21:01;;;;;;;3.93;2.90;;;27.90;88.90;;;;;;4150962;28;20537;-82
2021/07/18 11:23:06;;;;;;;3.57;3.00;;;27.70;88.70;;;;;;4145927;28;20496;-83
2021/07/18 11:25:09;;;;;;;5.53;3.37;;;27.70;88.90;;;;;;4147851;28;20545;-82
2021/07/18 11:27:25;;;;;;;4.07;3.10;;;27.60;88.50;;;;;;4149869;28;20534;-82
2021/07/18 11:29:36;;;;;;;5.50;2.80;;;27.80;88.90;;;;;;4152019;28;20469;-82
2021/07/18 11:31:46;;;;;;;3.87;3.23;;;28.00;87.80;;;;;;4149790;28;20490;-82
2021/07/18 11:33:53;;;;;;;3.40;3.10;;;28.10;87.50;;;;;;4148128;28;20496;-82
2021/07/18 11:35:57;;;;;;;5.43;3.20;;;27.60;88.30;;;;;;4148749;28;20511;-82
2021/07/18 11:38:01;;;;;;;4.27;2.90;;;27.20;90.10;;;;;;4149952;28;20466;-82
2021/07/18 11:40:09;;;;;;;3.30;3.00;;;27.50;90.10;;;;;;4148094;28;20470;-82
2021/07/18 11:42:14;;;;;;;3.10;2.80;;;28.00;88.60;;;;;;4151500;28;20462;-83
2021/07/18 11:44:17;;;;;;;4.90;3.30;;;28.20;88.40;;;;;;4153464;28;20503;-83
2021/07/18 11:46:24;;;;;;;5.60;3.23;;;28.00;87.70;;;;;;4153021;28;20736;-82
2021/07/18 11:48:29;;;;;;;5.30;2.90;;;27.60;88.10;;;;;;4154590;28;20462;-82
2021/07/18 11:50:32;;;;;;;8.47;4.13;;;27.10;89.70;;;;;;4155717;28;20490;-82
2021/07/18 11:52:39;;;;;;;3.23;2.93;;;27.00;90.20;;;;;;4154318;28;20459;-82
2021/07/18 11:54:43;;;;;;;5.37;3.33;;;27.00;90.50;;;;;;4147930;28;21001;-83